CDT,Max TemperatureF,Mean TemperatureF,Min TemperatureF,Max Dew PointF,MeanDew PointF,Min DewpointF,Max Humidity, Mean Humidity, Min Humidity, Max Sea Level PressureIn, Mean Sea Level PressureIn, Min Sea Level PressureIn, Max VisibilityMiles, Mean VisibilityMiles, Min VisibilityMiles, Max Wind SpeedMPH, Mean Wind SpeedMPH, Max Gust SpeedMPH,PrecipitationIn, CloudCover, Events, WindDirDegrees
2013-9-1,92,79,66,71,66,60,100,69,38,29.85,29.80,29.75,10,5,0,14,5,18,0.00,3,Fog,301
2013-9-2,83,73,62,61,58,54,84,63,42,29.99,29.92,29.84,10,10,10,12,5,17,0.00,1,,345
2013-9-3,80,68,55,58,55,52,93,66,39,30.11,30.06,30.00,10,10,10,9,3,13,0.00,2,,248
2013-9-4,86,71,56,58,55,51,93,62,30,30.16,30.12,30.07,10,10,7,10,1,14,0.00,0,,303
2013-9-5,89,76,62,67,60,56,84,62,40,30.20,30.16,30.13,10,10,10,14,5,17,0.00,1,,92
2013-9-6,89,76,62,62,59,52,78,59,40,30.19,30.12,30.02,10,10,10,16,6,20,0.00,0,,154
2013-9-7,90,77,64,66,63,59,87,63,39,30.03,29.96,29.90,10,9,3,21,7,24,T,0,Rain,203
2013-9-8,89,81,72,68,67,66,84,66,47,29.98,29.92,29.89,10,10,7,13,6,17,0.00,1,,137
2013-9-9,98,85,72,73,70,68,93,67,40,29.92,29.89,29.84,10,8,2,16,9,21,0.00,0,,196
2013-9-10,98,85,71,71,66,61,87,59,30,30.04,30.00,29.93,10,10,7,23,9,30,0.00,0,,218
2013-9-11,95,84,72,67,65,63,84,59,34,30.08,30.04,30.01,10,10,9,18,6,23,T,2,Rain,255
2013-9-12,85,72,59,70,59,44,90,58,26,30.09,30.03,29.99,10,9,1,21,8,28,0.60,3,Rain-Thunderstorm,308
2013-9-13,73,64,54,50,42,33,83,55,27,30.20,30.14,30.08,10,10,10,17,6,17,0.00,0,,37
2013-9-14,74,61,47,46,43,37,86,57,27,30.20,30.13,30.03,10,10,10,15,5,17,0.00,0,,146
2013-9-15,67,62,57,61,54,45,90,75,60,30.17,30.05,29.99,10,9,2,15,8,19,0.12,6,Rain,224
2013-9-16,73,64,54,55,51,46,93,69,44,30.34,30.27,30.17,10,10,10,17,10,23,0.00,5,,48
2013-9-17,76,64,51,55,52,47,89,68,46,30.31,30.21,30.09,10,10,10,15,7,18,0.00,4,,119
2013-9-18,87,76,64,70,62,53,82,65,48,30.09,30.00,29.91,10,10,8,21,11,27,0.01,3,Rain,183
2013-9-19,92,80,68,69,67,61,90,67,44,29.94,29.89,29.78,10,7,1,26,12,30,0.58,4,Rain-Thunderstorm,229
2013-9-20,71,64,56,67,61,48,93,70,47,29.91,29.87,29.83,10,10,3,15,7,23,T,5,Rain-Thunderstorm,271
2013-9-21,71,61,50,51,48,44,89,64,38,29.96,29.92,29.88,10,10,10,13,5,18,0.00,1,,327
2013-9-22,73,60,47,49,46,44,89,62,35,30.06,30.00,29.96,10,10,10,15,5,18,0.00,0,,70
2013-9-23,76,63,49,48,45,43,80,57,33,30.08,30.02,29.98,10,10,10,14,7,18,0.00,0,,109
2013-9-24,78,65,52,54,50,46,77,59,40,30.00,29.93,29.87,10,10,10,14,7,19,0.00,1,,100
2013-9-25,82,69,56,56,52,48,77,58,39,29.93,29.90,29.87,10,10,10,15,9,18,0.00,1,,58
2013-9-26,83,70,57,58,53,46,80,59,37,30.04,30.00,29.94,10,10,7,13,6,16,0.00,0,,101
2013-9-27,84,69,54,55,49,45,83,56,28,30.13,30.07,30.01,10,10,10,16,6,20,0.00,0,,135
2013-9-28,84,71,58,67,58,51,97,71,44,30.04,29.98,29.91,10,8,1,26,9,35,0.54,5,Rain,226
2013-9-29,72,62,51,56,49,40,96,64,31,30.09,30.04,30.01,10,8,0,13,5,16,0.00,2,,360
2013-9-30,78,63,48,59,50,46,93,65,36,30.01,29.94,29.87,10,10,8,15,7,19,0.00,0,,173